createdAt,value
2018-10-01T00:02:29.617Z,18.33
2018-10-01T00:05:01.207Z,18.27
2018-10-01T00:07:32.613Z,18.22
2018-10-01T00:10:04.208Z,18.23
2018-10-01T00:12:34.726Z,18.18
2018-10-01T00:15:06.022Z,18.17
2018-10-01T00:17:37.697Z,18.25
2018-10-01T00:20:14.199Z,18.25
2018-10-01T00:22:47.749Z,18.20
2018-10-01T00:25:19.801Z,18.17
2018-10-01T00:27:50.807Z,18.24
2018-10-01T00:30:22.369Z,18.23
2018-10-01T00:32:53.796Z,18.21
2018-10-01T00:35:25.376Z,18.17
2018-10-01T00:37:56.884Z,18.08
2018-10-01T00:40:28.367Z,18.05
2018-10-01T00:42:59.618Z,18.11
2018-10-01T00:45:31.216Z,18.13
2018-10-01T00:48:02.752Z,18.11
2018-10-01T00:50:34.309Z,18.11
2018-10-01T00:53:05.563Z,18.10
2018-10-01T00:55:36.854Z,18.11
2018-10-01T00:58:19.703Z,18.08
2018-10-01T01:00:51.299Z,18.04
2018-10-01T01:03:22.748Z,18.02
2018-10-01T01:05:53.777Z,18.01
2018-10-01T01:08:24.787Z,18.02
2018-10-01T01:10:56.203Z,17.93
2018-10-01T01:13:27.724Z,18.02
2018-10-01T01:15:59.313Z,18.05
2018-10-01T01:18:30.790Z,18.01
2018-10-01T01:21:02.387Z,17.98
2018-10-01T01:23:33.773Z,18.05
2018-10-01T01:26:05.303Z,18.06
2018-10-01T01:28:36.716Z,18.07
2018-10-01T01:31:08.307Z,18.07
2018-10-01T01:33:39.757Z,18.07
2018-10-01T01:36:11.511Z,18.11
2018-10-01T01:38:42.984Z,18.14
2018-10-01T01:41:14.689Z,18.07
2018-10-01T01:43:46.313Z,18.03
2018-10-01T01:46:17.764Z,17.97
2018-10-01T01:48:49.199Z,18.01
2018-10-01T01:51:20.659Z,18.07
2018-10-01T01:53:52.212Z,18.03
2018-10-01T01:56:23.712Z,17.95
2018-10-01T01:58:54.986Z,18.07
2018-10-01T02:01:26.506Z,18.00
2018-10-01T02:03:58.006Z,18.05
2018-10-01T02:06:29.643Z,18.01
2018-10-01T02:09:01.203Z,18.01
2018-10-01T02:11:32.641Z,17.95
2018-10-01T02:14:03.975Z,18.01
2018-10-01T02:16:34.519Z,18.02
2018-10-01T02:19:05.805Z,18.06
2018-10-01T02:21:37.409Z,18.03
2018-10-01T02:24:08.826Z,18.07
2018-10-01T02:26:40.314Z,18.08
2018-10-01T02:29:11.872Z,18.06
2018-10-01T02:31:43.507Z,18.04
2018-10-01T02:34:14.911Z,17.99
2018-10-01T02:36:45.586Z,18.09
2018-10-01T02:39:16.963Z,18.10
2018-10-01T02:41:47.465Z,18.00
2018-10-01T02:44:18.607Z,18.05
2018-10-01T02:46:50.229Z,18.02
2018-10-01T02:49:21.651Z,18.01
2018-10-01T02:51:57.968Z,18.00
2018-10-01T02:54:32.247Z,17.92
2018-10-01T02:57:04.365Z,18.02
2018-10-01T02:59:35.713Z,18.05
2018-10-01T03:02:07.391Z,17.95
2018-10-01T03:04:38.827Z,17.96
2018-10-01T03:07:10.433Z,18.03
2018-10-01T03:09:41.852Z,18.01
2018-10-01T03:12:13.366Z,18.00
2018-10-01T03:14:44.789Z,18.05
2018-10-01T03:17:16.307Z,18.00
2018-10-01T03:19:47.751Z,18.03
2018-10-01T03:22:19.306Z,17.97
2018-10-01T03:24:50.741Z,17.98
2018-10-01T03:27:22.304Z,17.98
2018-10-01T03:29:53.734Z,17.98
2018-10-01T03:32:25.193Z,17.99
2018-10-01T03:34:56.634Z,17.93
2018-10-01T03:37:28.299Z,17.90
2018-10-01T03:39:59.896Z,17.90
2018-10-01T03:42:30.817Z,17.94
2018-10-01T03:45:01.597Z,17.89
2018-10-01T03:47:32.386Z,17.90
2018-10-01T03:50:03.755Z,18.00
2018-10-01T03:52:34.830Z,17.96
2018-10-01T03:55:06.705Z,17.90
2018-10-01T03:57:37.823Z,17.85
2018-10-01T04:00:09.336Z,17.92
2018-10-01T04:02:40.773Z,17.90
2018-10-01T04:05:12.202Z,17.88
2018-10-01T04:07:43.717Z,17.93
2018-10-01T04:10:15.188Z,17.88
2018-10-01T04:12:46.729Z,17.98
2018-10-01T04:15:18.343Z,18.04
2018-10-01T04:17:49.812Z,17.87
2018-10-01T04:20:20.731Z,17.85
2018-10-01T04:22:51.748Z,17.92
2018-10-01T04:25:23.340Z,17.78
2018-10-01T04:27:54.770Z,17.88
2018-10-01T04:30:26.200Z,17.85
2018-10-01T04:32:57.701Z,17.83
2018-10-01T04:35:29.192Z,17.86
2018-10-01T04:38:00.694Z,17.84
2018-10-01T04:40:32.217Z,17.92
2018-10-01T04:43:03.696Z,17.91
2018-10-01T04:45:35.211Z,17.89
2018-10-01T04:48:06.720Z,17.84
2018-10-01T04:50:38.390Z,17.79
2018-10-01T04:53:09.950Z,17.74
2018-10-01T04:55:40.620Z,17.78
2018-10-01T04:58:12.277Z,17.78
2018-10-01T05:00:43.752Z,17.76
2018-10-01T05:03:15.181Z,17.77
2018-10-01T05:05:46.436Z,17.66
2018-10-01T05:08:18.780Z,17.77
2018-10-01T05:10:50.006Z,17.76
2018-10-01T05:13:21.305Z,17.68
2018-10-01T05:15:52.826Z,17.69
2018-10-01T05:18:24.420Z,17.70
2018-10-01T05:20:55.795Z,17.70
2018-10-01T05:23:27.002Z,17.66
2018-10-01T05:25:57.189Z,17.63
2018-10-01T05:28:28.616Z,17.71
2018-10-01T05:31:00.040Z,17.69
2018-10-01T05:33:31.711Z,17.66
2018-10-01T05:36:03.195Z,17.65
2018-10-01T05:38:34.775Z,17.72
2018-10-01T05:41:06.295Z,17.65
2018-10-01T05:43:38.534Z,17.74
2018-10-01T05:46:10.326Z,17.70
2018-10-01T05:48:41.803Z,17.61
2018-10-01T05:51:13.363Z,17.59
2018-10-01T05:53:44.792Z,17.59
2018-10-01T05:56:16.305Z,17.62
2018-10-01T05:58:47.769Z,17.64
2018-10-01T06:01:25.830Z,17.69
2018-10-01T06:03:57.303Z,17.71
2018-10-01T06:06:28.727Z,17.78
2018-10-01T06:09:00.302Z,17.62
2018-10-01T06:11:31.763Z,17.74
2018-10-01T06:14:03.299Z,17.69
2018-10-01T06:16:35.046Z,17.83
2018-10-01T06:19:06.946Z,17.76
2018-10-01T06:21:37.655Z,17.73
2018-10-01T06:24:09.336Z,17.71
2018-10-01T06:26:40.766Z,17.75
2018-10-01T06:29:13.221Z,17.80
2018-10-01T06:31:44.681Z,17.81
2018-10-01T06:34:16.186Z,17.77
2018-10-01T06:36:47.983Z,17.91
2018-10-01T06:39:19.900Z,17.90
2018-10-01T06:41:52.584Z,17.93
2018-10-01T06:44:23.854Z,17.89
2018-10-01T06:46:55.365Z,17.92
2018-10-01T06:49:26.779Z,17.92
2018-10-01T06:51:58.024Z,17.98
2018-10-01T06:54:29.737Z,17.97
2018-10-01T06:57:01.299Z,17.99
2018-10-01T06:59:32.760Z,17.98
2018-10-01T07:02:04.409Z,17.99
2018-10-01T07:04:35.856Z,18.04
2018-10-01T07:07:13.776Z,18.06
2018-10-01T07:09:45.298Z,18.12
2018-10-01T07:12:16.716Z,18.14
2018-10-01T07:14:48.196Z,18.07
2018-10-01T07:17:19.789Z,18.08
2018-10-01T07:19:50.888Z,18.17
2018-10-01T07:22:23.296Z,18.20
2018-10-01T07:24:54.759Z,18.13
2018-10-01T07:27:26.374Z,18.13
2018-10-01T07:29:57.768Z,18.18
2018-10-01T07:32:29.368Z,18.25
2018-10-01T07:35:00.867Z,18.22
2018-10-01T07:37:32.395Z,18.25
2018-10-01T07:40:03.873Z,18.26
2018-10-01T07:42:35.342Z,18.29
2018-10-01T07:45:07.291Z,18.26
2018-10-01T07:47:38.795Z,18.29
2018-10-01T07:50:10.682Z,18.29
2018-10-01T07:52:44.322Z,18.35
2018-10-01T07:55:15.791Z,18.38
2018-10-01T07:57:47.191Z,18.37
2018-10-01T08:00:18.775Z,18.46
2018-10-01T08:02:50.404Z,18.44
2018-10-01T08:05:21.739Z,18.45
2018-10-01T08:07:52.894Z,18.43
2018-10-01T08:10:24.408Z,18.50
2018-10-01T08:12:55.729Z,18.55
2018-10-01T08:15:27.308Z,18.58
2018-10-01T08:17:58.694Z,18.63
2018-10-01T08:20:30.246Z,18.63
2018-10-01T08:23:01.663Z,18.70
2018-10-01T08:25:33.236Z,18.66
2018-10-01T08:28:04.711Z,18.70
2018-10-01T08:30:36.198Z,18.69
2018-10-01T08:33:07.675Z,18.72
2018-10-01T08:35:39.285Z,18.77
2018-10-01T08:38:10.764Z,18.78
2018-10-01T08:40:42.286Z,18.82
2018-10-01T08:43:13.457Z,18.85
2018-10-01T08:45:44.641Z,18.93
2018-10-01T08:48:16.868Z,18.90
2018-10-01T08:51:03.001Z,18.98
2018-10-01T08:53:54.794Z,18.94
2018-10-01T08:56:26.504Z,18.87
2018-10-01T08:58:58.261Z,18.92
2018-10-01T09:01:29.763Z,19.05
2018-10-01T09:04:01.315Z,19.05
2018-10-01T09:06:32.765Z,19.16
2018-10-01T09:09:04.281Z,19.10
2018-10-01T09:11:35.753Z,19.14
2018-10-01T09:14:07.266Z,19.21
2018-10-01T09:16:38.723Z,19.13
2018-10-01T09:19:10.319Z,19.15
2018-10-01T09:21:41.824Z,19.21
2018-10-01T09:24:13.718Z,19.28
2018-10-01T09:26:45.235Z,19.27
2018-10-01T09:29:16.861Z,19.19
2018-10-01T09:31:48.391Z,19.14
2018-10-01T09:34:19.746Z,19.16
2018-10-01T09:36:51.195Z,19.17
2018-10-01T09:39:22.703Z,19.20
2018-10-01T09:41:54.241Z,19.28
2018-10-01T09:44:25.819Z,19.35
2018-10-01T09:46:57.315Z,19.27
2018-10-01T09:49:28.703Z,19.33
2018-10-01T09:52:00.207Z,19.34
2018-10-01T09:54:31.662Z,19.39
2018-10-01T09:57:03.183Z,19.46
2018-10-01T09:59:34.653Z,19.41
2018-10-01T10:02:05.922Z,19.41
2018-10-01T10:04:37.590Z,19.48
2018-10-01T10:07:08.847Z,19.44
2018-10-01T10:09:40.324Z,19.46
2018-10-01T10:12:11.795Z,19.35
2018-10-01T10:14:43.324Z,19.29
2018-10-01T10:17:14.872Z,19.39
2018-10-01T10:19:46.526Z,19.45
2018-10-01T10:22:17.912Z,19.51
2018-10-01T10:24:49.497Z,19.52
2018-10-01T10:27:21.311Z,19.47
2018-10-01T10:29:52.671Z,19.42
2018-10-01T10:32:24.201Z,19.45
2018-10-01T10:34:55.675Z,19.44
2018-10-01T10:37:26.995Z,19.41
2018-10-01T10:39:57.542Z,19.41
2018-10-01T10:42:29.213Z,19.33
2018-10-01T10:45:00.714Z,19.33
2018-10-01T10:47:32.628Z,19.36
2018-10-01T10:50:03.984Z,19.36
2018-10-01T10:52:35.480Z,19.39
2018-10-01T10:55:07.339Z,19.40
2018-10-01T10:57:38.808Z,19.41
2018-10-01T11:00:10.638Z,19.45
2018-10-01T11:02:42.151Z,19.50
2018-10-01T11:05:13.665Z,19.45
2018-10-01T11:07:45.201Z,19.36
2018-10-01T11:10:16.752Z,19.39
2018-10-01T11:12:48.370Z,19.42
2018-10-01T11:15:19.963Z,19.38
2018-10-01T11:17:51.378Z,19.31
2018-10-01T11:20:22.636Z,19.24
2018-10-01T11:22:54.224Z,19.36
2018-10-01T11:25:25.737Z,19.33
2018-10-01T11:27:57.311Z,19.34
2018-10-01T11:30:28.747Z,19.36
2018-10-01T11:33:00.275Z,19.32
2018-10-01T11:35:31.674Z,19.31
2018-10-01T11:38:02.987Z,19.37
2018-10-01T11:40:34.520Z,19.37
2018-10-01T11:43:05.966Z,19.39
2018-10-01T11:45:37.361Z,19.36
2018-10-01T11:48:08.843Z,19.39
2018-10-01T11:50:40.312Z,19.36
2018-10-01T11:53:11.744Z,19.40
2018-10-01T11:55:43.206Z,19.43
2018-10-01T11:58:14.703Z,19.43
2018-10-01T12:00:46.214Z,19.39
2018-10-01T12:03:17.816Z,19.38
2018-10-01T12:05:49.205Z,19.30
2018-10-01T12:08:20.796Z,19.36
2018-10-01T12:10:52.311Z,19.33
2018-10-01T12:13:23.738Z,19.32
2018-10-01T12:15:55.314Z,19.33
2018-10-01T12:18:27.529Z,19.33
2018-10-01T12:20:58.889Z,19.42
2018-10-01T12:23:30.523Z,19.42
2018-10-01T12:28:43.754Z,19.41
2018-10-01T12:31:14.818Z,19.34
2018-10-01T12:33:46.330Z,19.37
2018-10-01T12:36:17.720Z,19.41
2018-10-01T12:38:48.991Z,19.46
2018-10-01T12:41:20.383Z,19.41
2018-10-01T12:43:51.778Z,19.40
2018-10-01T12:46:23.669Z,19.40
2018-10-01T12:48:55.198Z,19.37
2018-10-01T12:51:26.768Z,19.40
2018-10-01T12:53:58.209Z,19.40
2018-10-01T12:56:29.682Z,19.35
2018-10-01T12:59:00.988Z,19.41
2018-10-01T13:01:31.553Z,19.39
2018-10-01T13:04:03.215Z,19.39
2018-10-01T13:06:34.801Z,19.38
2018-10-01T13:09:08.735Z,19.38
2018-10-01T13:11:40.647Z,19.39
2018-10-01T13:14:12.204Z,19.40
2018-10-01T13:16:43.727Z,19.35
2018-10-01T13:19:15.305Z,19.40
2018-10-01T13:21:46.822Z,19.37
2018-10-01T13:24:18.286Z,19.36
2018-10-01T13:26:49.545Z,19.36
2018-10-01T13:29:21.245Z,19.37
2018-10-01T13:31:52.811Z,19.40
2018-10-01T13:34:24.207Z,19.38
2018-10-01T13:36:55.630Z,19.40
2018-10-01T13:39:27.386Z,19.38
2018-10-01T13:41:58.732Z,19.39
2018-10-01T13:44:30.510Z,19.40
2018-10-01T13:47:01.773Z,19.43
2018-10-01T13:49:32.886Z,19.36
2018-10-01T13:52:04.244Z,19.37
2018-10-01T13:54:35.825Z,19.35
2018-10-01T13:57:07.216Z,19.31
2018-10-01T13:59:38.728Z,19.29
2018-10-01T14:02:10.246Z,19.29
2018-10-01T14:04:41.682Z,19.57
2018-10-01T14:07:13.306Z,19.86
2018-10-01T14:09:44.697Z,20.13
2018-10-01T14:12:16.207Z,20.32
2018-10-01T14:14:47.709Z,20.48
2018-10-01T14:17:19.498Z,20.59
2018-10-01T14:19:50.986Z,20.63
2018-10-01T14:22:22.209Z,20.70
2018-10-01T14:24:53.724Z,20.76
2018-10-01T14:27:25.398Z,20.76
2018-10-01T14:29:56.822Z,20.73
2018-10-01T14:32:28.310Z,20.69
2018-10-01T14:34:59.803Z,20.68
2018-10-01T14:37:31.221Z,20.59
2018-10-01T14:40:02.679Z,20.60
2018-10-01T14:42:33.692Z,20.54
2018-10-01T14:45:05.306Z,20.51
2018-10-01T14:47:36.707Z,20.50
2018-10-01T14:50:08.200Z,20.45
2018-10-01T14:52:39.699Z,20.42
2018-10-01T14:55:11.201Z,20.36
2018-10-01T14:57:42.651Z,20.33
2018-10-01T15:00:14.139Z,20.30
2018-10-01T15:02:45.655Z,20.22
2018-10-01T15:05:16.971Z,20.21
2018-10-01T15:07:48.359Z,20.16
2018-10-01T15:10:19.902Z,20.13
2018-10-01T15:12:51.369Z,20.11
2018-10-01T15:15:22.820Z,20.20
2018-10-01T15:17:54.213Z,20.16
2018-10-01T15:20:25.691Z,20.06
2018-10-01T15:22:57.198Z,20.01
2018-10-01T15:25:28.630Z,20.02
2018-10-01T15:28:00.002Z,19.98
2018-10-01T15:30:31.565Z,19.97
2018-10-01T15:33:02.850Z,19.95
2018-10-01T15:35:34.376Z,19.93
2018-10-01T15:38:05.728Z,19.92
2018-10-01T15:40:37.259Z,19.90
2018-10-01T15:43:08.798Z,19.90
2018-10-01T15:45:40.205Z,19.90
2018-10-01T15:48:11.631Z,19.93
2018-10-01T15:50:43.220Z,19.88
2018-10-01T15:53:14.617Z,19.87
2018-10-01T15:55:45.992Z,19.85
2018-10-01T15:58:17.542Z,19.83
2018-10-01T16:00:48.863Z,19.85
2018-10-01T16:03:20.514Z,19.92
2018-10-01T16:05:52.199Z,19.91
2018-10-01T16:08:23.636Z,19.94
2018-10-01T16:10:54.987Z,19.92
2018-10-01T16:13:26.691Z,19.93
2018-10-01T16:15:58.305Z,19.82
2018-10-01T16:18:29.738Z,19.89
2018-10-01T16:21:00.792Z,19.81
2018-10-01T16:23:31.729Z,19.71
2018-10-01T16:26:03.188Z,19.65
2018-10-01T16:28:34.667Z,19.73
2018-10-01T16:31:06.204Z,19.72
2018-10-01T16:33:37.670Z,19.71
2018-10-01T16:36:09.200Z,19.80
2018-10-01T16:38:40.738Z,19.74
2018-10-01T16:41:11.790Z,19.79
2018-10-01T16:43:42.784Z,19.86
2018-10-01T16:46:14.386Z,19.82
2018-10-01T16:48:45.982Z,19.72
2018-10-01T16:51:16.566Z,19.69
2018-10-01T16:53:47.910Z,19.64
2018-10-01T16:56:19.373Z,19.54
2018-10-01T16:58:50.696Z,19.56
2018-10-01T17:01:22.332Z,19.51
2018-10-01T17:03:53.727Z,19.60
2018-10-01T17:06:29.882Z,19.57
2018-10-01T17:09:01.647Z,19.53
2018-10-01T17:11:33.198Z,19.56
2018-10-01T17:14:04.738Z,19.44
2018-10-01T17:16:36.194Z,19.43
2018-10-01T17:19:07.717Z,19.48
2018-10-01T17:21:39.340Z,19.51
2018-10-01T17:24:10.732Z,19.44
2018-10-01T17:26:48.792Z,19.43
2018-10-01T17:29:20.311Z,19.41
2018-10-01T17:31:51.828Z,19.44
2018-10-01T17:34:23.295Z,19.45
2018-10-01T17:36:54.746Z,19.40
2018-10-01T17:39:26.505Z,19.37
2018-10-01T17:41:57.968Z,19.28
2018-10-01T17:44:29.499Z,19.26
2018-10-01T17:47:00.903Z,19.23
2018-10-01T17:49:32.404Z,19.25
2018-10-01T17:52:03.806Z,19.23
2018-10-01T17:54:34.806Z,19.26
2018-10-01T17:57:05.733Z,19.30
2018-10-01T17:59:37.192Z,19.17
2018-10-01T18:02:08.686Z,19.29
2018-10-01T18:04:40.192Z,19.42
2018-10-01T18:07:11.714Z,19.44
2018-10-01T18:09:43.320Z,19.45
2018-10-01T18:12:14.785Z,19.37
2018-10-01T18:14:46.434Z,19.33
2018-10-01T18:17:17.834Z,19.34
2018-10-01T18:19:49.360Z,19.30
2018-10-01T18:22:20.738Z,19.30
2018-10-01T18:24:52.328Z,19.33
2018-10-01T18:27:23.736Z,19.28
2018-10-01T18:29:55.416Z,19.34
2018-10-01T18:32:26.771Z,19.23
2018-10-01T18:34:58.322Z,19.28
2018-10-01T18:37:29.793Z,19.22
2018-10-01T18:40:01.306Z,19.22
2018-10-01T18:42:32.739Z,19.21
2018-10-01T18:45:04.262Z,19.22
2018-10-01T18:47:35.654Z,19.29
2018-10-01T18:50:07.295Z,19.35
2018-10-01T18:52:38.754Z,19.32
2018-10-01T18:55:11.185Z,19.22
2018-10-01T18:57:42.785Z,19.25
2018-10-01T19:00:14.036Z,19.20
2018-10-01T19:02:44.504Z,19.23
2018-10-01T19:05:15.888Z,19.17
2018-10-01T19:07:47.370Z,19.17
2018-10-01T19:10:18.829Z,19.14
2018-10-01T19:12:50.192Z,19.11
2018-10-01T19:15:21.732Z,19.10
2018-10-01T19:17:53.006Z,19.10
2018-10-01T19:20:24.499Z,19.12
2018-10-01T19:22:56.270Z,19.06
2018-10-01T19:25:27.764Z,18.99
2018-10-01T19:27:59.158Z,18.97
2018-10-01T19:30:30.979Z,18.95
2018-10-01T19:33:02.564Z,18.97
2018-10-01T19:35:34.264Z,18.97
2018-10-01T19:38:05.696Z,18.95
2018-10-01T19:40:36.981Z,18.96
2018-10-01T19:43:07.611Z,18.93
2018-10-01T19:45:38.921Z,18.83
2018-10-01T19:48:10.528Z,18.89
2018-10-01T19:50:42.876Z,18.87
2018-10-01T19:53:14.457Z,18.90
2018-10-01T19:55:45.870Z,18.89
2018-10-01T19:58:17.503Z,18.87
2018-10-01T20:00:48.846Z,18.89
2018-10-01T20:03:20.445Z,18.90
2018-10-01T20:05:51.780Z,18.88
2018-10-01T20:08:24.556Z,18.87
2018-10-01T20:10:56.034Z,18.89
2018-10-01T20:13:27.526Z,18.81
2018-10-01T20:15:59.134Z,18.88
2018-10-01T20:18:29.617Z,18.86
2018-10-01T20:21:01.219Z,18.87
2018-10-01T20:23:33.187Z,18.82
2018-10-01T20:26:04.778Z,18.80
2018-10-01T20:28:36.478Z,18.79
2018-10-01T20:31:07.743Z,18.87
2018-10-01T20:33:39.359Z,18.89
2018-10-01T20:36:10.774Z,18.83
2018-10-01T20:38:42.183Z,18.83
2018-10-01T20:41:13.896Z,18.80
2018-10-01T20:43:45.696Z,18.80
2018-10-01T20:46:17.193Z,18.76
2018-10-01T20:48:48.713Z,18.88
2018-10-01T20:51:20.190Z,18.89
2018-10-01T20:53:51.627Z,18.89
2018-10-01T20:56:23.260Z,18.89
2018-10-01T20:58:54.768Z,18.84
2018-10-01T21:01:26.311Z,18.76
2018-10-01T21:03:57.690Z,18.77
2018-10-01T21:06:28.991Z,18.76
2018-10-01T21:08:59.594Z,18.75
2018-10-01T21:11:30.982Z,18.69
2018-10-01T21:14:02.543Z,18.70
2018-10-01T21:16:34.187Z,18.70
2018-10-01T21:19:05.664Z,18.67
2018-10-01T21:21:37.188Z,18.66
2018-10-01T21:24:08.650Z,18.72
2018-10-01T21:26:40.189Z,18.65
2018-10-01T21:29:11.670Z,18.69
2018-10-01T21:31:45.995Z,18.69
2018-10-01T21:34:19.224Z,18.70
2018-10-01T21:36:52.389Z,18.67
2018-10-01T21:40:29.709Z,18.67
2018-10-01T21:43:01.194Z,18.59
2018-10-01T21:45:32.662Z,18.51
2018-10-01T21:48:03.891Z,18.54
2018-10-01T21:50:35.379Z,18.56
2018-10-01T21:53:06.716Z,18.61
2018-10-01T21:55:38.022Z,18.64
2018-10-01T21:58:09.646Z,18.62
2018-10-01T22:00:46.302Z,18.54
2018-10-01T22:03:17.707Z,18.48
2018-10-01T22:05:49.401Z,18.51
2018-10-01T22:08:20.965Z,18.58
2018-10-01T22:10:52.497Z,18.51
2018-10-01T22:13:23.831Z,18.45
2018-10-01T22:15:55.357Z,18.49
2018-10-01T22:18:26.806Z,18.49
2018-10-01T22:20:58.201Z,18.46
2018-10-01T22:23:29.708Z,18.49
2018-10-01T22:26:01.359Z,18.48
2018-10-01T22:28:32.730Z,18.49
2018-10-01T22:31:04.198Z,18.40
2018-10-01T22:33:35.689Z,18.45
2018-10-01T22:36:06.900Z,18.44
2018-10-01T22:38:38.398Z,18.41
2018-10-01T22:41:10.190Z,18.39
2018-10-01T22:43:41.662Z,18.36
2018-10-01T22:46:13.195Z,18.42
2018-10-01T22:48:44.659Z,18.40
2018-10-01T22:51:15.983Z,18.34
2018-10-01T22:53:47.322Z,18.34
2018-10-01T22:56:18.747Z,18.33
2018-10-01T22:58:50.197Z,18.33
2018-10-01T23:01:21.690Z,18.39
2018-10-01T23:03:53.361Z,18.34
2018-10-01T23:06:25.401Z,18.34
2018-10-01T23:08:56.765Z,18.31
2018-10-01T23:11:28.494Z,18.34
2018-10-01T23:13:59.875Z,18.29
2018-10-01T23:16:31.312Z,18.28
2018-10-01T23:19:02.706Z,18.22
2018-10-01T23:21:34.317Z,18.27
2018-10-01T23:24:05.819Z,18.28
2018-10-01T23:26:37.003Z,18.30
2018-10-01T23:29:08.207Z,18.31
2018-10-01T23:31:39.652Z,18.27
2018-10-01T23:34:11.193Z,18.25
2018-10-01T23:36:42.651Z,18.32
2018-10-01T23:39:14.189Z,18.32
2018-10-01T23:41:45.674Z,18.34
2018-10-01T23:44:16.982Z,18.29
2018-10-01T23:46:48.486Z,18.29
2018-10-01T23:49:19.786Z,18.33
2018-10-01T23:51:51.006Z,18.31
2018-10-01T23:54:22.492Z,18.30
2018-10-01T23:56:53.862Z,18.31
2018-10-01T23:59:25.336Z,18.24
